< < Back
Terminal Aerodrome Forecast


Current Version              Previous Versions:   1  2  3  4  5  6  7  8  9  

Terminal Aerodrome Forecast

090
FTUS42 KFFC 281954 AAA
TAFPDK
TAF AMD
KPDK 281954Z 2820/2918 32006KT P6SM SCT040
      TEMPO 2820/2823 VRB15G25KT 6SM -TSRA BKN050CB
     FM290100 00000KT P6SM SCT120
     FM291500 31006KT P6SM SCT050=

Latest METAR

854
SAUS70 KWBC 290900 RRJ
MTRPDK
METAR KPDK 290853Z AUTO 34004KT 10SM CLR 26/22 A2996 RMK AO2 SLP123
T02560222 56015


USA.gov is the U.S. government's official web portal to all federal, state and local government web resources and services.